createdAt,value
2019-02-09T00:01:10.202Z,7.33
2019-02-09T00:03:39.249Z,6.93
2019-02-09T00:06:08.208Z,5.93
2019-02-09T00:08:37.213Z,7.80
2019-02-09T00:11:06.342Z,5.40
2019-02-09T00:13:35.378Z,6.53
2019-02-09T00:16:04.991Z,8.73
2019-02-09T00:18:34.025Z,5.03
2019-02-09T00:21:03.139Z,7.23
2019-02-09T00:23:32.131Z,6.87
2019-02-09T00:26:01.139Z,9.13
2019-02-09T00:28:30.727Z,6.23
2019-02-09T00:30:59.800Z,8.17
2019-02-09T00:33:28.975Z,6.47
2019-02-09T00:35:57.990Z,6.67
2019-02-09T00:38:27.047Z,7.43
2019-02-09T00:40:57.308Z,5.70
2019-02-09T00:43:26.317Z,5.43
2019-02-09T00:45:55.375Z,8.60
2019-02-09T00:48:24.438Z,10.20
2019-02-09T00:50:53.484Z,7.70
2019-02-09T00:53:22.559Z,6.77
2019-02-09T00:55:51.640Z,6.47
2019-02-09T00:58:20.624Z,7.00
2019-02-09T01:00:49.674Z,11.70
2019-02-09T01:03:18.826Z,11.63
2019-02-09T01:05:47.932Z,17.57
2019-02-09T01:08:17.066Z,6.70
2019-02-09T01:10:46.094Z,8.77
2019-02-09T01:13:15.104Z,7.93
2019-02-09T01:15:44.186Z,8.40
2019-02-09T01:18:13.235Z,9.17
2019-02-09T01:20:42.316Z,5.80
2019-02-09T01:23:11.287Z,12.47
2019-02-09T01:25:40.307Z,5.50
2019-02-09T01:28:09.432Z,10.40
2019-02-09T01:30:38.446Z,6.30
2019-02-09T01:33:07.414Z,5.43
2019-02-09T01:35:36.414Z,6.57
2019-02-09T01:38:05.502Z,6.23
2019-02-09T01:40:34.502Z,6.23
2019-02-09T01:43:03.905Z,3.70
2019-02-09T01:45:33.014Z,8.03
2019-02-09T01:48:02.071Z,7.77
2019-02-09T01:50:31.412Z,6.07
2019-02-09T01:53:00.474Z,6.50
2019-02-09T01:55:29.723Z,6.83
2019-02-09T01:57:59.035Z,5.50
2019-02-09T02:00:29.049Z,6.93
2019-02-09T02:02:58.110Z,5.37
2019-02-09T02:05:27.264Z,7.13
2019-02-09T02:07:56.322Z,8.10
2019-02-09T02:10:26.213Z,9.07
2019-02-09T02:12:55.379Z,8.20
2019-02-09T02:15:24.465Z,10.00
2019-02-09T02:17:53.435Z,12.00
2019-02-09T02:20:22.982Z,9.87
2019-02-09T02:22:52.024Z,7.33
2019-02-09T02:25:21.103Z,18.07
2019-02-09T02:27:50.142Z,8.10
2019-02-09T02:30:22.875Z,14.17
2019-02-09T02:32:51.799Z,5.90
2019-02-09T02:35:20.873Z,9.43
2019-02-09T02:37:49.923Z,9.23
2019-02-09T02:40:19.303Z,9.03
2019-02-09T02:42:48.443Z,5.50
2019-02-09T02:45:17.513Z,7.70
2019-02-09T02:47:46.512Z,9.93
2019-02-09T02:50:16.533Z,9.77
2019-02-09T02:52:45.551Z,4.93
2019-02-09T02:55:16.999Z,7.67
2019-02-09T02:57:46.133Z,7.73
2019-02-09T03:00:16.519Z,6.70
2019-02-09T03:02:45.514Z,7.20
2019-02-09T03:05:15.631Z,9.57
2019-02-09T03:07:44.615Z,8.47
2019-02-09T03:10:13.772Z,7.47
2019-02-09T03:12:42.782Z,9.67
2019-02-09T03:15:16.900Z,7.77
2019-02-09T03:17:45.911Z,6.83
2019-02-09T03:20:15.520Z,6.60
2019-02-09T03:22:44.617Z,10.90
2019-02-09T03:25:14.678Z,6.67
2019-02-09T03:27:44.588Z,5.27
2019-02-09T03:30:14.468Z,5.43
2019-02-09T03:32:43.532Z,6.27
2019-02-09T03:35:12.752Z,10.33
2019-02-09T03:37:41.819Z,6.07
2019-02-09T03:40:11.943Z,11.97
2019-02-09T03:42:41.036Z,10.30
2019-02-09T03:45:11.957Z,7.17
2019-02-09T03:47:40.948Z,7.10
2019-02-09T03:50:10.580Z,10.17
2019-02-09T03:52:39.643Z,10.83
2019-02-09T03:55:08.602Z,5.27
2019-02-09T03:57:37.606Z,7.70
2019-02-09T04:00:08.534Z,10.27
2019-02-09T04:02:37.733Z,6.70
2019-02-09T04:05:07.479Z,9.13
2019-02-09T04:07:36.481Z,6.53
2019-02-09T04:10:06.101Z,5.47
2019-02-09T04:12:35.139Z,5.23
2019-02-09T04:15:05.285Z,6.80
2019-02-09T04:17:34.263Z,6.47
2019-02-09T04:20:03.362Z,4.17
2019-02-09T04:22:32.355Z,4.73
2019-02-09T04:25:01.373Z,5.13
2019-02-09T04:27:30.399Z,5.07
2019-02-09T04:29:59.388Z,5.00
2019-02-09T04:32:28.385Z,10.50
2019-02-09T04:34:57.387Z,4.27
2019-02-09T04:37:26.403Z,6.53
2019-02-09T04:39:55.366Z,10.73
2019-02-09T04:42:24.375Z,5.20
2019-02-09T04:44:53.397Z,4.23
2019-02-09T04:47:22.387Z,4.97
2019-02-09T04:49:51.346Z,5.20
2019-02-09T04:52:20.329Z,4.80
2019-02-09T04:54:49.368Z,5.97
2019-02-09T04:57:18.430Z,8.37
2019-02-09T04:59:47.402Z,5.23
2019-02-09T05:02:16.486Z,4.53
2019-02-09T05:04:45.462Z,4.57
2019-02-09T05:07:14.441Z,5.03
2019-02-09T05:09:43.436Z,4.13
2019-02-09T05:12:12.415Z,6.17
2019-02-09T05:14:41.395Z,4.13
2019-02-09T05:17:10.374Z,2.33
2019-02-09T05:19:39.462Z,7.70
2019-02-09T05:22:08.666Z,4.53
2019-02-09T05:24:37.658Z,4.60
2019-02-09T05:27:06.632Z,5.20
2019-02-09T05:29:35.620Z,4.40
2019-02-09T05:32:04.606Z,8.43
2019-02-09T05:34:33.612Z,5.30
2019-02-09T05:37:02.585Z,4.67
2019-02-09T05:39:31.654Z,4.23
2019-02-09T05:42:00.677Z,5.73
2019-02-09T05:44:29.689Z,5.27
2019-02-09T05:46:58.664Z,4.90
2019-02-09T05:49:27.700Z,4.17
2019-02-09T05:51:56.691Z,6.37
2019-02-09T05:54:25.690Z,5.93
2019-02-09T05:56:54.658Z,5.33
2019-02-09T05:59:23.647Z,6.67
2019-02-09T06:01:52.637Z,6.67
2019-02-09T06:04:21.605Z,3.03
2019-02-09T06:06:50.663Z,4.87
2019-02-09T06:09:19.663Z,6.63
2019-02-09T06:11:48.635Z,4.63
2019-02-09T06:14:17.651Z,4.63
2019-02-09T06:16:46.611Z,2.97
2019-02-09T06:19:15.600Z,3.77
2019-02-09T06:21:44.599Z,3.93
2019-02-09T06:24:13.646Z,3.60
2019-02-09T06:26:42.611Z,3.77
2019-02-09T06:29:11.654Z,4.67
2019-02-09T06:31:41.321Z,3.63
2019-02-09T06:34:10.463Z,4.83
2019-02-09T06:36:39.439Z,7.13
2019-02-09T06:39:08.478Z,4.70
2019-02-09T06:41:37.489Z,5.37
2019-02-09T06:44:06.488Z,4.57
2019-02-09T06:46:35.467Z,2.87
2019-02-09T06:49:04.562Z,9.20
2019-02-09T06:51:33.584Z,3.83
2019-02-09T06:54:02.571Z,3.20
2019-02-09T06:56:31.542Z,7.13
2019-02-09T06:59:00.537Z,4.57
2019-02-09T07:01:29.491Z,5.87
2019-02-09T07:03:58.487Z,7.50
2019-02-09T07:06:27.473Z,4.17
2019-02-09T07:08:56.594Z,5.53
2019-02-09T07:11:25.555Z,3.47
2019-02-09T07:13:54.531Z,5.63
2019-02-09T07:16:23.486Z,8.27
2019-02-09T07:18:52.484Z,4.83
2019-02-09T07:21:21.539Z,5.60
2019-02-09T07:23:50.533Z,8.57
2019-02-09T07:26:19.515Z,6.37
2019-02-09T07:28:48.603Z,7.03
2019-02-09T07:31:17.659Z,9.67
2019-02-09T07:33:46.651Z,14.13
2019-02-09T07:36:15.647Z,9.53
2019-02-09T07:38:44.636Z,5.23
2019-02-09T07:41:13.634Z,6.90
2019-02-09T07:43:42.682Z,9.00
2019-02-09T07:46:11.771Z,9.57
2019-02-09T07:48:40.751Z,6.27
2019-02-09T07:51:09.770Z,4.53
2019-02-09T07:53:38.774Z,8.30
2019-02-09T07:56:07.755Z,7.57
2019-02-09T07:58:36.875Z,5.67
2019-02-09T08:01:06.006Z,6.03
2019-02-09T08:03:35.025Z,6.20
2019-02-09T08:06:04.439Z,6.23
2019-02-09T08:08:33.482Z,5.37
2019-02-09T08:11:09.004Z,5.83
2019-02-09T08:13:33.135Z,4.63
2019-02-09T08:16:02.142Z,3.27
2019-02-09T08:18:31.200Z,4.90
2019-02-09T08:21:00.203Z,3.73
2019-02-09T08:23:29.191Z,2.67
2019-02-09T08:25:58.175Z,3.77
2019-02-09T08:28:27.144Z,4.97
2019-02-09T08:30:56.123Z,4.67
2019-02-09T08:33:25.085Z,3.43
2019-02-09T08:35:54.068Z,3.37
2019-02-09T08:38:23.040Z,7.03
2019-02-09T08:40:52.114Z,6.33
2019-02-09T08:43:21.099Z,4.43
2019-02-09T08:45:50.067Z,5.10
2019-02-09T08:48:19.050Z,6.63
2019-02-09T08:50:49.667Z,9.00
2019-02-09T08:53:18.650Z,5.43
2019-02-09T08:55:47.627Z,5.30
2019-02-09T08:58:16.715Z,6.20
2019-02-09T09:00:45.708Z,8.50
2019-02-09T09:03:14.821Z,9.37
2019-02-09T09:05:43.884Z,5.13
2019-02-09T09:08:12.875Z,5.03
2019-02-09T09:10:41.867Z,5.10
2019-02-09T09:13:10.841Z,7.97
2019-02-09T09:15:41.227Z,9.07
2019-02-09T09:18:10.320Z,6.20
2019-02-09T09:20:40.545Z,8.37
2019-02-09T09:23:09.513Z,7.13
2019-02-09T09:25:38.584Z,16.60
2019-02-09T09:28:07.536Z,6.30
2019-02-09T09:30:36.536Z,8.30
2019-02-09T09:33:05.619Z,10.80
2019-02-09T09:35:34.587Z,8.20
2019-02-09T09:38:03.570Z,11.13
2019-02-09T09:40:33.698Z,8.37
2019-02-09T09:43:02.668Z,9.03
2019-02-09T09:45:32.257Z,9.10
2019-02-09T09:48:01.239Z,5.90
2019-02-09T09:50:30.357Z,5.63
2019-02-09T09:52:59.318Z,7.27
2019-02-09T09:55:28.291Z,6.00
2019-02-09T09:57:57.259Z,7.27
2019-02-09T10:00:26.599Z,9.27
2019-02-09T10:02:55.560Z,6.13
2019-02-09T10:05:24.682Z,9.97
2019-02-09T10:07:54.019Z,10.57
2019-02-09T10:10:23.031Z,7.27
2019-02-09T10:12:52.001Z,7.97
2019-02-09T10:15:21.659Z,6.43
2019-02-09T10:17:50.639Z,10.77
2019-02-09T10:20:20.476Z,22.70
2019-02-09T10:22:49.736Z,17.07
2019-02-09T10:25:18.827Z,12.17
2019-02-09T10:27:47.876Z,11.57
2019-02-09T10:30:17.751Z,12.23
2019-02-09T10:32:46.709Z,8.87
2019-02-09T10:35:15.932Z,14.67
2019-02-09T10:37:44.920Z,9.43
2019-02-09T10:40:15.326Z,8.40
2019-02-09T10:42:44.326Z,19.07
2019-02-09T10:45:15.004Z,13.87
2019-02-09T10:47:43.973Z,14.30
2019-02-09T10:50:15.191Z,10.87
2019-02-09T10:52:44.159Z,14.70
2019-02-09T10:55:13.194Z,10.07
2019-02-09T10:57:43.928Z,8.17
2019-02-09T11:00:15.716Z,6.30
2019-02-09T11:02:51.918Z,7.80
2019-02-09T11:05:15.697Z,6.90
2019-02-09T11:07:44.956Z,8.03
2019-02-09T11:10:14.646Z,7.60
2019-02-09T11:12:43.707Z,8.60
2019-02-09T11:15:13.449Z,8.00
2019-02-09T11:17:42.482Z,8.17
2019-02-09T11:20:12.758Z,9.23
2019-02-09T11:22:41.781Z,8.23
2019-02-09T11:25:11.186Z,8.23
2019-02-09T11:27:40.263Z,12.83
2019-02-09T11:30:11.145Z,8.63
2019-02-09T11:32:40.132Z,10.60
2019-02-09T11:35:09.230Z,7.77
2019-02-09T11:37:38.314Z,9.13
2019-02-09T11:40:07.717Z,7.20
2019-02-09T11:42:36.730Z,8.30
2019-02-09T11:45:06.794Z,11.07
2019-02-09T11:47:37.271Z,6.43
2019-02-09T11:50:06.767Z,8.73
2019-02-09T11:52:36.224Z,8.80
2019-02-09T11:55:06.050Z,8.10
2019-02-09T11:57:35.190Z,4.60
2019-02-09T12:00:06.031Z,6.90
2019-02-09T12:02:38.114Z,6.20
2019-02-09T12:05:07.202Z,9.37
2019-02-09T12:07:36.198Z,8.37
2019-02-09T12:10:05.726Z,6.70
2019-02-09T12:12:34.810Z,6.87
2019-02-09T12:15:04.655Z,8.87
2019-02-09T12:17:33.770Z,13.70
2019-02-09T12:20:02.744Z,7.50
2019-02-09T12:22:31.934Z,24.23
2019-02-09T12:25:00.970Z,19.87
2019-02-09T12:27:29.943Z,20.00
2019-02-09T12:29:58.907Z,16.10
2019-02-09T12:32:27.902Z,9.80
2019-02-09T12:34:56.905Z,12.10
2019-02-09T12:37:25.871Z,8.83
2019-02-09T12:39:54.933Z,13.80
2019-02-09T12:42:23.919Z,24.43
2019-02-09T12:44:52.921Z,37.03
2019-02-09T12:47:21.910Z,14.90
2019-02-09T12:49:50.865Z,7.03
2019-02-09T12:52:19.877Z,8.93
2019-02-09T12:54:48.862Z,8.57
2019-02-09T12:57:17.878Z,7.37
2019-02-09T12:59:46.873Z,6.37
2019-02-09T13:02:15.875Z,8.80
2019-02-09T13:04:44.863Z,8.23
2019-02-09T13:07:13.958Z,11.30
2019-02-09T13:09:42.916Z,11.30
2019-02-09T13:12:11.904Z,10.67
2019-02-09T13:14:40.850Z,13.87
2019-02-09T13:17:09.895Z,9.70
2019-02-09T13:19:38.890Z,23.67
2019-02-09T13:22:08.039Z,9.37
2019-02-09T13:24:37.522Z,9.57
2019-02-09T13:27:06.941Z,13.33
2019-02-09T13:29:36.394Z,8.23
2019-02-09T13:32:05.864Z,10.30
2019-02-09T13:34:35.429Z,23.23
2019-02-09T13:37:04.837Z,24.67
2019-02-09T13:39:34.314Z,35.70
2019-02-09T13:42:03.814Z,25.27
2019-02-09T13:44:33.309Z,31.97
2019-02-09T13:47:02.919Z,13.27
2019-02-09T13:49:32.333Z,8.97
2019-02-09T13:52:01.825Z,14.93
2019-02-09T13:54:31.349Z,18.90
2019-02-09T13:57:00.847Z,17.93
2019-02-09T13:59:30.407Z,13.67
2019-02-09T14:01:59.956Z,15.20
2019-02-09T14:04:29.485Z,11.17
2019-02-09T14:06:58.907Z,12.27
2019-02-09T14:09:28.549Z,14.53
2019-02-09T14:11:58.047Z,7.47
2019-02-09T14:14:27.538Z,7.73
2019-02-09T14:16:57.115Z,12.40
2019-02-09T14:19:26.591Z,12.13
2019-02-09T14:21:56.022Z,15.10
2019-02-09T14:24:25.658Z,15.60
2019-02-09T14:26:55.134Z,17.93
2019-02-09T14:29:24.729Z,23.63
2019-02-09T14:31:54.284Z,23.83
2019-02-09T14:34:23.854Z,17.10
2019-02-09T14:36:53.345Z,10.30
2019-02-09T14:39:22.801Z,13.80
2019-02-09T14:41:52.272Z,9.10
2019-02-09T14:44:21.651Z,12.97
2019-02-09T14:46:51.211Z,5.80
2019-02-09T14:49:20.708Z,11.10
2019-02-09T14:51:50.183Z,6.07
2019-02-09T14:54:19.592Z,8.00
2019-02-09T14:56:49.037Z,8.90
2019-02-09T14:59:18.457Z,6.87
2019-02-09T15:01:48.191Z,6.97
2019-02-09T15:04:17.687Z,8.20
2019-02-09T15:06:47.132Z,7.07
2019-02-09T15:09:16.539Z,9.73
2019-02-09T15:11:45.958Z,11.27
2019-02-09T15:14:15.423Z,7.23
2019-02-09T15:16:49.219Z,8.53
2019-02-09T15:19:20.030Z,6.97
2019-02-09T15:21:49.467Z,7.67
2019-02-09T15:24:18.894Z,5.93
2019-02-09T15:26:48.309Z,8.63
2019-02-09T15:29:17.759Z,8.73
2019-02-09T15:31:47.216Z,8.93
2019-02-09T15:34:16.702Z,7.20
2019-02-09T15:36:46.191Z,4.10
2019-02-09T15:39:15.600Z,7.43
2019-02-09T15:41:45.242Z,9.77
2019-02-09T15:44:14.643Z,7.90
2019-02-09T15:46:44.111Z,10.30
2019-02-09T15:49:13.569Z,10.23
2019-02-09T15:51:43.014Z,14.47
2019-02-09T15:54:12.446Z,10.70
2019-02-09T15:56:41.945Z,10.10
2019-02-09T15:59:11.386Z,12.80
2019-02-09T16:01:40.864Z,12.20
2019-02-09T16:04:17.546Z,18.50
2019-02-09T16:06:41.534Z,9.93
2019-02-09T16:09:10.961Z,8.90
2019-02-09T16:11:40.387Z,11.13
2019-02-09T16:14:09.807Z,13.77
2019-02-09T16:16:39.329Z,17.77
2019-02-09T16:19:08.746Z,11.40
2019-02-09T16:21:38.250Z,14.77
2019-02-09T16:24:07.666Z,9.83
2019-02-09T16:26:37.124Z,11.73
2019-02-09T16:29:06.555Z,10.43
2019-02-09T16:31:36.122Z,13.90
2019-02-09T16:34:05.566Z,13.10
2019-02-09T16:36:35.066Z,8.77
2019-02-09T16:39:06.609Z,11.03
2019-02-09T16:41:36.086Z,14.33
2019-02-09T16:44:05.577Z,24.13
2019-02-09T16:46:35.038Z,16.80
2019-02-09T16:49:04.676Z,17.47
2019-02-09T16:51:34.078Z,19.90
2019-02-09T16:54:03.584Z,20.83
2019-02-09T16:56:33.089Z,19.67
2019-02-09T16:59:02.510Z,16.30
2019-02-09T17:01:31.935Z,44.37
2019-02-09T17:04:01.353Z,28.17
2019-02-09T17:06:30.845Z,13.73
2019-02-09T17:09:00.315Z,19.77
2019-02-09T17:11:29.721Z,18.87
2019-02-09T17:13:59.109Z,12.00
2019-02-09T17:16:28.530Z,15.50
2019-02-09T17:18:57.937Z,16.90
2019-02-09T17:21:27.436Z,21.87
2019-02-09T17:23:56.832Z,12.00
2019-02-09T17:26:26.263Z,8.13
2019-02-09T17:28:55.648Z,9.60
2019-02-09T17:31:25.364Z,8.93
2019-02-09T17:33:54.761Z,12.57
2019-02-09T17:36:24.167Z,8.83
2019-02-09T17:38:53.566Z,11.43
2019-02-09T17:41:22.995Z,14.60
2019-02-09T17:43:52.383Z,7.77
2019-02-09T17:46:21.786Z,7.40
2019-02-09T17:48:51.174Z,12.27
2019-02-09T17:51:20.586Z,9.73
2019-02-09T17:53:50.062Z,14.80
2019-02-09T17:56:22.375Z,10.67
2019-02-09T17:58:51.779Z,11.33
2019-02-09T18:01:21.207Z,7.63
2019-02-09T18:03:50.616Z,9.10
2019-02-09T18:06:21.033Z,7.53
2019-02-09T18:08:50.414Z,11.13
2019-02-09T18:11:19.915Z,13.00
2019-02-09T18:13:49.320Z,10.33
2019-02-09T18:16:18.788Z,16.40
2019-02-09T18:18:48.190Z,35.47
2019-02-09T18:21:17.615Z,15.53
2019-02-09T18:23:47.114Z,36.30
2019-02-09T18:26:16.501Z,25.43
2019-02-09T18:28:48.406Z,30.43
2019-02-09T18:31:17.836Z,28.10
2019-02-09T18:33:47.269Z,14.80
2019-02-09T18:36:16.766Z,22.17
2019-02-09T18:38:49.173Z,14.67
2019-02-09T18:41:18.643Z,13.97
2019-02-09T18:43:48.047Z,15.10
2019-02-09T18:46:19.886Z,19.77
2019-02-09T18:48:49.320Z,20.97
2019-02-09T18:51:18.711Z,17.73
2019-02-09T18:53:48.147Z,21.03
2019-02-09T18:56:17.562Z,16.27
2019-02-09T18:58:47.002Z,14.83
2019-02-09T19:01:16.414Z,26.67
2019-02-09T19:03:45.838Z,24.23
2019-02-09T19:06:15.283Z,16.23
2019-02-09T19:08:44.772Z,11.27
2019-02-09T19:11:14.156Z,10.60
2019-02-09T19:13:43.566Z,10.30
2019-02-09T19:16:12.963Z,12.70
2019-02-09T19:18:42.384Z,16.53
2019-02-09T19:21:12.924Z,10.37
2019-02-09T19:23:42.354Z,13.43
2019-02-09T19:26:11.837Z,15.43
2019-02-09T19:28:41.331Z,9.33
2019-02-09T19:31:10.748Z,20.67
2019-02-09T19:33:40.179Z,9.77
2019-02-09T19:36:09.622Z,10.40
2019-02-09T19:38:39.047Z,17.03
2019-02-09T19:41:08.453Z,8.77
2019-02-09T19:43:37.886Z,12.27
2019-02-09T19:46:08.391Z,12.47
2019-02-09T19:48:37.822Z,8.00
2019-02-09T19:51:07.329Z,5.93
2019-02-09T19:53:36.736Z,13.23
2019-02-09T19:56:06.125Z,14.67
2019-02-09T19:58:35.538Z,15.23
2019-02-09T20:01:05.135Z,11.10
2019-02-09T20:03:34.653Z,15.97
2019-02-09T20:06:04.098Z,10.90
2019-02-09T20:08:33.518Z,15.07
2019-02-09T20:11:02.972Z,10.60
2019-02-09T20:13:32.451Z,11.37
2019-02-09T20:16:01.879Z,12.90
2019-02-09T20:18:31.294Z,13.50
2019-02-09T20:21:00.971Z,12.70
2019-02-09T20:23:30.396Z,14.07
2019-02-09T20:25:59.858Z,11.83
2019-02-09T20:28:29.314Z,13.23
2019-02-09T20:30:59.415Z,12.07
2019-02-09T20:33:28.866Z,14.90
2019-02-09T20:35:58.258Z,12.37
2019-02-09T20:38:27.671Z,12.73
2019-02-09T20:40:58.818Z,13.73
2019-02-09T20:43:28.283Z,11.23
2019-02-09T20:45:57.688Z,10.40
2019-02-09T20:48:30.009Z,14.97
2019-02-09T20:50:59.427Z,9.33
2019-02-09T20:53:28.881Z,17.30
2019-02-09T20:55:58.303Z,11.30
2019-02-09T20:58:27.758Z,15.97
2019-02-09T21:00:57.182Z,15.83
2019-02-09T21:03:26.611Z,13.20
2019-02-09T21:05:56.033Z,12.87
2019-02-09T21:08:25.603Z,10.17
2019-02-09T21:10:55.062Z,13.40
2019-02-09T21:13:24.506Z,17.63
2019-02-09T21:15:53.912Z,12.90
2019-02-09T21:18:23.446Z,18.23
2019-02-09T21:20:52.831Z,12.93
2019-02-09T21:23:22.244Z,12.77
2019-02-09T21:25:51.680Z,14.90
2019-02-09T21:28:21.088Z,14.83
2019-02-09T21:30:50.512Z,11.90
2019-02-09T21:33:19.942Z,10.50
2019-02-09T21:35:49.423Z,14.13
2019-02-09T21:38:18.932Z,13.23
2019-02-09T21:40:48.339Z,13.23
2019-02-09T21:43:17.815Z,15.93
2019-02-09T21:45:47.206Z,11.60
2019-02-09T21:48:16.621Z,16.53
2019-02-09T21:50:46.075Z,13.63
2019-02-09T21:53:15.490Z,13.10
2019-02-09T21:55:44.958Z,12.40
2019-02-09T21:58:14.467Z,14.43
2019-02-09T22:00:44.053Z,15.23
2019-02-09T22:03:13.713Z,13.90
2019-02-09T22:05:43.155Z,11.07
2019-02-09T22:08:19.274Z,13.07
2019-02-09T22:10:44.913Z,11.47
2019-02-09T22:13:14.424Z,13.67
2019-02-09T22:15:43.881Z,9.30
2019-02-09T22:18:13.374Z,14.20
2019-02-09T22:20:42.785Z,13.30
2019-02-09T22:23:12.262Z,15.77
2019-02-09T22:25:41.743Z,17.10
2019-02-09T22:28:11.362Z,15.13
2019-02-09T22:30:40.814Z,13.60
2019-02-09T22:33:10.381Z,12.40
2019-02-09T22:35:39.854Z,11.17
2019-02-09T22:38:09.474Z,10.97
2019-02-09T22:40:39.088Z,11.77
2019-02-09T22:43:08.692Z,12.33
2019-02-09T22:45:38.172Z,16.47
2019-02-09T22:48:08.276Z,15.57
2019-02-09T22:50:38.866Z,13.70
2019-02-09T22:53:08.586Z,11.40
2019-02-09T22:55:38.077Z,13.93
2019-02-09T22:58:07.886Z,10.00
2019-02-09T23:00:51.607Z,11.17
2019-02-09T23:03:40.617Z,12.03
2019-02-09T23:06:31.933Z,9.87
2019-02-09T23:09:01.365Z,15.47
2019-02-09T23:11:30.859Z,15.50
2019-02-09T23:14:00.382Z,17.90
2019-02-09T23:16:29.818Z,9.33
2019-02-09T23:18:59.824Z,14.27
2019-02-09T23:21:29.426Z,12.10
2019-02-09T23:23:58.951Z,7.60
2019-02-09T23:26:28.369Z,18.27
2019-02-09T23:28:57.831Z,15.17
2019-02-09T23:31:27.335Z,16.00
2019-02-09T23:33:57.061Z,15.00
2019-02-09T23:36:26.466Z,8.33
2019-02-09T23:38:55.899Z,20.27
2019-02-09T23:41:25.380Z,19.77
2019-02-09T23:43:55.090Z,14.83
2019-02-09T23:46:24.510Z,21.23
2019-02-09T23:48:54.010Z,16.20
2019-02-09T23:51:23.498Z,14.70
2019-02-09T23:53:53.018Z,33.47
2019-02-09T23:56:22.508Z,31.10
2019-02-09T23:58:51.922Z,18.30
